createdAt,value
2022-09-12T00:01:20.571Z,74.30
2022-09-12T00:03:49.467Z,74.50
2022-09-12T00:06:23.229Z,74.40
2022-09-12T00:08:51.644Z,74.40
2022-09-12T00:11:19.757Z,74.50
2022-09-12T00:13:47.860Z,74.60
2022-09-12T00:16:17.835Z,74.70
2022-09-12T00:18:47.347Z,74.50
2022-09-12T00:21:16.365Z,74.60
2022-09-12T00:23:45.880Z,74.70
2022-09-12T00:26:14.779Z,74.60
2022-09-12T00:28:43.264Z,74.60
2022-09-12T00:31:14.737Z,74.60
2022-09-12T00:33:43.042Z,74.70
2022-09-12T00:36:14.803Z,74.70
2022-09-12T00:38:44.856Z,74.80
2022-09-12T00:41:19.067Z,74.80
2022-09-12T00:43:48.958Z,74.90
2022-09-12T00:46:31.913Z,75.00
2022-09-12T00:49:04.110Z,75.20
2022-09-12T00:51:35.525Z,75.20
2022-09-12T00:54:09.373Z,75.30
2022-09-12T00:56:41.093Z,75.30
2022-09-12T00:59:14.265Z,75.50
2022-09-12T01:01:45.827Z,75.50
2022-09-12T01:04:14.799Z,75.50
2022-09-12T01:06:44.868Z,75.50
2022-09-12T01:09:17.088Z,75.50
2022-09-12T01:11:48.872Z,75.50
2022-09-12T01:14:18.903Z,75.50
2022-09-12T01:16:48.454Z,75.60
2022-09-12T01:19:37.074Z,75.70
2022-09-12T01:22:16.888Z,75.70
2022-09-12T01:24:55.748Z,75.70
2022-09-12T01:27:49.886Z,75.70
2022-09-12T01:30:31.620Z,75.80
2022-09-12T01:33:24.770Z,75.80
2022-09-12T01:36:04.467Z,75.80
2022-09-12T01:38:39.704Z,75.80
2022-09-12T01:41:14.062Z,75.90
2022-09-12T01:43:50.784Z,76.00
2022-09-12T01:46:24.544Z,76.10
2022-09-12T01:48:58.830Z,76.10
2022-09-12T01:51:32.206Z,76.10
2022-09-12T01:54:05.834Z,76.20
2022-09-12T01:56:36.902Z,76.30
2022-09-12T01:59:10.104Z,76.40
2022-09-12T02:01:45.679Z,76.40
2022-09-12T02:04:18.736Z,76.50
2022-09-12T02:06:51.267Z,76.50
2022-09-12T02:09:23.539Z,76.60
2022-09-12T02:11:54.553Z,76.60
2022-09-12T02:14:25.609Z,76.70
2022-09-12T02:16:59.915Z,76.70
2022-09-12T02:19:32.162Z,76.80
2022-09-12T02:22:02.593Z,77.00
2022-09-12T02:24:34.395Z,77.00
2022-09-12T02:27:07.732Z,76.90
2022-09-12T02:29:35.998Z,77.00
2022-09-12T02:32:11.070Z,77.10
2022-09-12T02:34:49.464Z,77.20
2022-09-12T02:37:26.284Z,77.30
2022-09-12T02:39:55.943Z,77.30
2022-09-12T02:42:24.481Z,77.20
2022-09-12T02:44:55.567Z,77.30
2022-09-12T02:47:30.994Z,77.30
2022-09-12T02:50:00.438Z,77.40
2022-09-12T02:52:30.090Z,77.40
2022-09-12T02:54:59.386Z,77.40
2022-09-12T02:57:27.697Z,77.40
2022-09-12T03:00:00.117Z,77.50
2022-09-12T03:02:44.859Z,77.60
2022-09-12T03:05:28.360Z,77.50
2022-09-12T03:08:21.492Z,77.60
2022-09-12T03:11:25.487Z,77.60
2022-09-12T03:14:05.993Z,77.80
2022-09-12T03:16:42.198Z,77.80
2022-09-12T03:19:25.043Z,77.70
2022-09-12T03:22:03.434Z,77.70
2022-09-12T03:24:35.117Z,77.70
2022-09-12T03:27:10.389Z,77.70
2022-09-12T03:29:41.468Z,77.70
2022-09-12T03:32:09.589Z,77.70
2022-09-12T03:34:39.134Z,77.70
2022-09-12T03:37:07.486Z,77.70
2022-09-12T03:39:35.669Z,77.80
2022-09-12T03:42:03.801Z,77.90
2022-09-12T03:44:32.012Z,77.80
2022-09-12T03:47:00.144Z,77.70
2022-09-12T03:49:28.312Z,77.80
2022-09-12T03:51:57.816Z,77.90
2022-09-12T03:54:26.109Z,77.90
2022-09-12T03:56:54.233Z,78.00
2022-09-12T03:59:22.329Z,78.10
2022-09-12T04:01:50.507Z,78.10
2022-09-12T04:04:18.608Z,78.10
2022-09-12T04:06:46.748Z,78.20
2022-09-12T04:09:16.320Z,78.10
2022-09-12T04:11:44.470Z,78.20
2022-09-12T04:14:12.617Z,78.10
2022-09-12T04:16:40.725Z,78.20
2022-09-12T04:19:09.235Z,78.20
2022-09-12T04:21:37.398Z,78.20
2022-09-12T04:24:05.759Z,78.20
2022-09-12T04:26:35.481Z,78.20
2022-09-12T04:29:03.619Z,78.20
2022-09-12T04:31:31.851Z,78.20
2022-09-12T04:34:02.344Z,78.20
2022-09-12T04:36:31.133Z,78.20
2022-09-12T04:39:00.365Z,78.10
2022-09-12T04:41:31.251Z,78.00
2022-09-12T04:44:03.221Z,78.10
2022-09-12T04:46:33.370Z,78.10
2022-09-12T04:49:01.594Z,78.20
2022-09-12T04:51:31.441Z,78.20
2022-09-12T04:54:02.371Z,78.20
2022-09-12T04:56:31.183Z,78.20
2022-09-12T04:59:02.243Z,78.10
2022-09-12T05:01:31.120Z,78.00
2022-09-12T05:04:00.458Z,77.90
2022-09-12T05:06:30.204Z,78.00
2022-09-12T05:08:59.734Z,78.00
2022-09-12T05:11:46.778Z,77.90
2022-09-12T05:14:19.554Z,78.00
2022-09-12T05:16:49.631Z,78.00
2022-09-12T05:19:18.317Z,77.90
2022-09-12T05:21:46.466Z,78.00
2022-09-12T05:24:14.650Z,78.00
2022-09-12T05:26:42.960Z,78.00
2022-09-12T05:29:13.210Z,78.00
2022-09-12T05:31:43.478Z,78.00
2022-09-12T05:34:12.794Z,78.10
2022-09-12T05:36:40.935Z,78.10
2022-09-12T05:39:09.079Z,78.00
2022-09-12T05:41:37.355Z,78.10
2022-09-12T05:44:07.280Z,78.10
2022-09-12T05:46:39.069Z,78.10
2022-09-12T05:49:10.069Z,78.00
2022-09-12T05:51:40.950Z,77.90
2022-09-12T05:54:11.852Z,77.80
2022-09-12T05:56:41.334Z,77.90
2022-09-12T05:59:14.071Z,77.70
2022-09-12T06:01:42.508Z,77.50
2022-09-12T06:04:12.380Z,77.60
2022-09-12T06:06:43.526Z,77.40
2022-09-12T06:09:12.084Z,77.30
2022-09-12T06:11:41.891Z,77.20
2022-09-12T06:14:11.307Z,77.20
2022-09-12T06:16:40.013Z,77.00
2022-09-12T06:19:13.505Z,76.90
2022-09-12T06:21:43.113Z,76.80
2022-09-12T06:24:11.406Z,76.70
2022-09-12T06:26:39.488Z,76.40
2022-09-12T06:29:07.819Z,76.30
2022-09-12T06:31:37.119Z,76.10
2022-09-12T06:34:07.956Z,75.80
2022-09-12T06:36:39.019Z,75.60
2022-09-12T06:39:11.714Z,75.20
2022-09-12T06:41:43.695Z,74.80
2022-09-12T06:44:14.976Z,74.60
2022-09-12T06:46:43.271Z,74.30
2022-09-12T06:49:11.833Z,74.00
2022-09-12T06:51:41.875Z,73.70
2022-09-12T06:54:14.611Z,73.70
2022-09-12T06:56:42.932Z,73.40
2022-09-12T06:59:11.449Z,73.00
2022-09-12T07:01:40.196Z,72.90
2022-09-12T07:04:08.568Z,73.00
2022-09-12T07:06:39.965Z,73.00
2022-09-12T07:09:10.948Z,73.10
2022-09-12T07:11:42.747Z,73.30
2022-09-12T07:14:14.145Z,73.10
2022-09-12T07:16:43.165Z,72.80
2022-09-12T07:19:12.139Z,72.90
2022-09-12T07:21:41.026Z,72.60
2022-09-12T07:24:10.877Z,72.40
2022-09-12T07:26:42.332Z,72.10
2022-09-12T07:29:35.852Z,71.80
2022-09-12T07:32:05.673Z,71.50
2022-09-12T07:34:33.969Z,71.20
2022-09-12T07:37:02.069Z,70.80
2022-09-12T07:39:30.220Z,70.40
2022-09-12T07:42:00.447Z,70.00
2022-09-12T07:44:29.469Z,70.00
2022-09-12T07:46:57.670Z,70.10
2022-09-12T07:49:25.984Z,70.10
2022-09-12T07:51:54.112Z,70.10
2022-09-12T07:54:22.420Z,70.20
2022-09-12T07:56:50.593Z,70.10
2022-09-12T07:59:41.560Z,69.50
2022-09-12T08:02:16.586Z,68.90
2022-09-12T08:04:45.456Z,68.40
2022-09-12T08:07:13.571Z,67.80
2022-09-12T08:09:41.790Z,67.70
2022-09-12T08:12:10.288Z,67.60
2022-09-12T08:14:39.867Z,67.20
2022-09-12T08:17:08.089Z,66.80
2022-09-12T08:19:36.197Z,66.30
2022-09-12T08:22:04.470Z,65.80
2022-09-12T08:24:33.662Z,65.70
2022-09-12T08:27:01.811Z,65.60
2022-09-12T08:29:30.006Z,65.70
2022-09-12T08:31:59.575Z,65.60
2022-09-12T08:34:27.791Z,65.40
2022-09-12T08:36:55.924Z,65.20
2022-09-12T08:39:24.682Z,65.10
2022-09-12T08:42:01.717Z,64.90
2022-09-12T08:44:55.326Z,64.10
2022-09-12T08:47:29.223Z,64.50
2022-09-12T08:50:05.162Z,63.90
2022-09-12T08:52:40.675Z,63.60
2022-09-12T08:55:24.498Z,63.00
2022-09-12T08:57:53.132Z,63.00
2022-09-12T09:00:22.964Z,62.70
2022-09-12T09:03:16.847Z,62.90
2022-09-12T09:05:52.433Z,62.70
2022-09-12T09:08:41.927Z,62.40
2022-09-12T09:11:22.100Z,62.00
2022-09-12T09:14:19.992Z,62.40
2022-09-12T09:16:53.269Z,62.70
2022-09-12T09:19:27.910Z,62.80
2022-09-12T09:22:00.193Z,63.20
2022-09-12T09:24:34.392Z,63.20
2022-09-12T09:27:14.267Z,63.10
2022-09-12T09:29:55.938Z,63.10
2022-09-12T09:32:28.768Z,63.30
2022-09-12T09:34:58.360Z,62.80
2022-09-12T09:37:36.003Z,62.60
2022-09-12T09:40:17.204Z,62.50
2022-09-12T09:42:54.220Z,62.30
2022-09-12T09:45:25.270Z,62.00
2022-09-12T09:47:58.425Z,62.10
2022-09-12T09:50:28.532Z,62.20
2022-09-12T09:52:59.014Z,62.40
2022-09-12T09:55:42.011Z,62.40
2022-09-12T09:58:10.151Z,62.40
2022-09-12T10:00:39.627Z,62.60
2022-09-12T10:03:27.406Z,62.50
2022-09-12T10:06:00.732Z,62.40
2022-09-12T10:08:31.169Z,61.90
2022-09-12T10:11:03.001Z,62.20
2022-09-12T10:13:37.969Z,61.60
2022-09-12T10:16:08.442Z,61.30
2022-09-12T10:18:42.839Z,60.60
2022-09-12T10:21:28.065Z,60.10
2022-09-12T10:24:05.864Z,60.20
2022-09-12T10:26:36.918Z,59.90
2022-09-12T10:29:12.601Z,59.60
2022-09-12T10:31:47.918Z,59.50
2022-09-12T10:34:27.989Z,59.50
2022-09-12T10:37:03.472Z,58.30
2022-09-12T10:39:32.821Z,58.10
2022-09-12T10:42:01.131Z,58.20
2022-09-12T10:44:31.052Z,57.90
2022-09-12T10:47:00.616Z,57.50
2022-09-12T10:49:31.288Z,57.40
2022-09-12T10:52:19.536Z,57.30
2022-09-12T10:54:47.813Z,57.30
2022-09-12T10:58:00.155Z,56.90
2022-09-12T11:00:30.397Z,56.40
2022-09-12T11:03:06.462Z,56.60
2022-09-12T11:05:52.806Z,56.10
2022-09-12T11:08:43.337Z,55.60
2022-09-12T11:11:30.665Z,55.30
2022-09-12T11:14:19.467Z,54.80
2022-09-12T11:16:56.210Z,55.00
2022-09-12T11:19:49.851Z,54.80
2022-09-12T11:22:33.657Z,54.60
2022-09-12T11:25:28.399Z,54.10
2022-09-12T11:28:09.181Z,53.80
2022-09-12T11:30:51.700Z,53.90
2022-09-12T11:33:43.097Z,53.40
2022-09-12T11:36:26.483Z,53.90
2022-09-12T11:39:10.110Z,53.60
2022-09-12T11:41:42.663Z,53.70
2022-09-12T11:44:18.705Z,53.50
2022-09-12T11:46:51.565Z,53.00
2022-09-12T11:49:35.435Z,53.00
2022-09-12T11:52:08.362Z,52.50
2022-09-12T11:54:42.908Z,52.50
2022-09-12T11:57:18.226Z,51.90
2022-09-12T11:59:53.575Z,51.80
2022-09-12T12:02:27.992Z,51.80
2022-09-12T12:05:18.855Z,51.20
2022-09-12T12:07:54.015Z,51.20
2022-09-12T12:10:35.132Z,51.20
2022-09-12T12:13:13.900Z,50.40
2022-09-12T12:15:48.653Z,50.80
2022-09-12T12:18:19.899Z,50.20
2022-09-12T12:20:48.487Z,50.20
2022-09-12T12:23:29.226Z,50.60
2022-09-12T12:25:59.261Z,50.00
2022-09-12T12:29:00.936Z,49.70
2022-09-12T12:31:29.130Z,49.30
2022-09-12T12:34:21.712Z,48.90
2022-09-12T12:36:50.234Z,47.90
2022-09-12T12:39:55.712Z,48.30
2022-09-12T12:42:57.393Z,48.20
2022-09-12T12:46:00.727Z,47.40
2022-09-12T12:48:36.515Z,47.60
2022-09-12T12:51:27.428Z,47.60
2022-09-12T12:53:56.451Z,47.60
2022-09-12T12:56:54.929Z,47.10
2022-09-12T12:59:24.858Z,47.10
2022-09-12T13:01:58.483Z,46.80
2022-09-12T13:04:29.440Z,46.30
2022-09-12T13:07:05.766Z,46.10
2022-09-12T13:09:39.499Z,46.00
2022-09-12T13:12:10.899Z,46.00
2022-09-12T13:14:55.022Z,46.10
2022-09-12T13:17:34.847Z,46.30
2022-09-12T13:20:34.618Z,46.10
2022-09-12T13:23:02.879Z,45.30
2022-09-12T13:25:33.164Z,44.90
2022-09-12T13:28:05.090Z,45.20
2022-09-12T13:30:36.227Z,45.30
2022-09-12T13:33:19.728Z,44.80
2022-09-12T13:36:17.633Z,44.50
2022-09-12T13:38:55.599Z,44.60
2022-09-12T13:41:45.971Z,44.30
2022-09-12T13:44:18.094Z,43.70
2022-09-12T13:46:46.454Z,43.80
2022-09-12T13:49:22.387Z,43.50
2022-09-12T13:52:00.662Z,43.40
2022-09-12T13:54:29.496Z,44.00
2022-09-12T13:56:58.083Z,43.70
2022-09-12T13:59:26.622Z,43.20
2022-09-12T14:01:54.844Z,43.30
2022-09-12T14:04:43.519Z,43.00
2022-09-12T14:07:15.038Z,43.40
2022-09-12T14:09:47.156Z,43.00
2022-09-12T14:12:22.218Z,43.70
2022-09-12T14:14:52.715Z,43.60
2022-09-12T14:17:27.567Z,43.70
2022-09-12T14:19:59.485Z,43.40
2022-09-12T14:22:29.895Z,43.00
2022-09-12T14:24:59.327Z,42.80
2022-09-12T14:27:30.455Z,42.70
2022-09-12T14:30:04.646Z,42.70
2022-09-12T14:32:32.802Z,42.40
2022-09-12T14:35:19.921Z,42.20
2022-09-12T14:37:51.233Z,42.30
2022-09-12T14:40:22.276Z,42.10
2022-09-12T14:42:52.691Z,42.30
2022-09-12T14:45:26.534Z,42.10
2022-09-12T14:47:55.098Z,41.70
2022-09-12T14:50:27.733Z,42.10
2022-09-12T14:53:07.246Z,42.00
2022-09-12T14:55:43.147Z,42.00
2022-09-12T14:58:26.277Z,41.90
2022-09-12T15:01:00.373Z,41.70
2022-09-12T15:03:31.881Z,41.50
2022-09-12T15:06:02.912Z,41.50
2022-09-12T15:08:31.975Z,41.60
2022-09-12T15:11:00.841Z,41.30
2022-09-12T15:13:30.832Z,40.60
2022-09-12T15:16:00.291Z,40.70
2022-09-12T15:18:30.051Z,40.70
2022-09-12T15:21:02.865Z,41.10
2022-09-12T15:23:35.876Z,41.10
2022-09-12T15:26:05.261Z,40.40
2022-09-12T15:28:36.629Z,40.00
2022-09-12T15:31:09.513Z,40.00
2022-09-12T15:33:37.625Z,40.00
2022-09-12T15:36:15.367Z,39.80
2022-09-12T15:38:43.580Z,39.70
2022-09-12T15:41:17.606Z,39.10
2022-09-12T15:43:45.985Z,38.50
2022-09-12T15:46:15.527Z,38.20
2022-09-12T15:48:43.899Z,38.70
2022-09-12T15:51:15.922Z,39.00
2022-09-12T15:53:44.568Z,38.60
2022-09-12T15:56:13.115Z,38.20
2022-09-12T15:58:57.231Z,37.50
2022-09-12T16:01:27.306Z,35.50
2022-09-12T16:03:55.488Z,32.30
2022-09-12T16:06:25.964Z,30.40
2022-09-12T16:08:54.107Z,29.50
2022-09-12T16:11:24.897Z,28.70
2022-09-12T16:13:53.842Z,28.70
2022-09-12T16:16:22.310Z,31.50
2022-09-12T16:18:50.695Z,33.60
2022-09-12T16:21:19.005Z,35.00
2022-09-12T16:23:49.138Z,36.10
2022-09-12T16:26:18.209Z,37.00
2022-09-12T16:28:46.814Z,37.70
2022-09-12T16:31:15.657Z,38.30
2022-09-12T16:33:43.936Z,39.00
2022-09-12T16:36:13.475Z,39.60
2022-09-12T16:38:45.798Z,40.60
2022-09-12T16:41:15.997Z,41.50
2022-09-12T16:43:45.503Z,42.30
2022-09-12T16:46:15.951Z,43.00
2022-09-12T16:48:50.892Z,43.80
2022-09-12T16:51:21.855Z,44.60
2022-09-12T16:53:50.832Z,45.20
2022-09-12T16:56:20.522Z,45.90
2022-09-12T16:58:52.794Z,46.50
2022-09-12T17:01:22.187Z,47.20
2022-09-12T17:03:54.425Z,47.70
2022-09-12T17:06:22.929Z,48.40
2022-09-12T17:09:07.770Z,49.00
2022-09-12T17:11:40.557Z,49.50
2022-09-12T17:14:14.584Z,49.90
2022-09-12T17:16:51.421Z,50.20
2022-09-12T17:19:22.174Z,50.70
2022-09-12T17:21:50.302Z,51.10
2022-09-12T17:24:19.309Z,51.60
2022-09-12T17:26:49.089Z,52.10
2022-09-12T17:29:17.755Z,52.60
2022-09-12T17:31:49.278Z,53.00
2022-09-12T17:34:21.111Z,53.40
2022-09-12T17:36:51.825Z,53.80
2022-09-12T17:39:21.546Z,54.20
2022-09-12T17:42:08.253Z,54.60
2022-09-12T17:44:39.729Z,54.90
2022-09-12T17:47:10.638Z,55.20
2022-09-12T17:49:41.446Z,55.40
2022-09-12T17:52:11.944Z,55.80
2022-09-12T17:54:42.734Z,56.10
2022-09-12T17:57:14.420Z,56.40
2022-09-12T17:59:42.786Z,56.80
2022-09-12T18:02:13.123Z,57.00
2022-09-12T18:04:45.908Z,57.30
2022-09-12T18:07:15.926Z,57.40
2022-09-12T18:09:43.998Z,57.50
2022-09-12T18:12:13.791Z,57.40
2022-09-12T18:14:42.606Z,57.40
2022-09-12T18:17:11.598Z,57.20
2022-09-12T18:19:40.009Z,57.20
2022-09-12T18:22:08.367Z,57.20
2022-09-12T18:24:36.898Z,57.40
2022-09-12T18:27:05.237Z,57.50
2022-09-12T18:29:34.708Z,57.50
2022-09-12T18:32:03.363Z,57.30
2022-09-12T18:34:31.489Z,57.30
2022-09-12T18:36:59.656Z,57.20
2022-09-12T18:39:28.148Z,57.10
2022-09-12T18:41:56.739Z,57.00
2022-09-12T18:44:24.915Z,56.90
2022-09-12T18:46:54.465Z,57.00
2022-09-12T18:49:22.584Z,57.20
2022-09-12T18:51:50.693Z,57.20
2022-09-12T18:54:19.160Z,57.20
2022-09-12T18:56:47.765Z,57.20
2022-09-12T18:59:16.198Z,57.00
2022-09-12T19:01:44.488Z,56.90
2022-09-12T19:04:16.365Z,56.80
2022-09-12T19:06:46.266Z,56.80
2022-09-12T19:09:16.281Z,56.70
2022-09-12T19:11:49.514Z,56.80
2022-09-12T19:14:18.557Z,56.70
2022-09-12T19:16:46.759Z,56.70
2022-09-12T19:19:16.347Z,56.90
2022-09-12T19:21:44.565Z,57.00
2022-09-12T19:24:14.378Z,56.90
2022-09-12T19:26:42.756Z,57.00
2022-09-12T19:29:14.162Z,56.90
2022-09-12T19:31:44.756Z,56.80
2022-09-12T19:34:16.271Z,56.70
2022-09-12T19:36:47.341Z,56.80
2022-09-12T19:39:17.814Z,56.60
2022-09-12T19:41:49.681Z,56.90
2022-09-12T19:44:19.268Z,57.20
2022-09-12T19:46:56.280Z,57.70
2022-09-12T19:49:27.085Z,58.40
2022-09-12T19:51:55.174Z,58.60
2022-09-12T19:54:27.212Z,58.20
2022-09-12T19:56:55.644Z,58.20
2022-09-12T19:59:28.492Z,57.80
2022-09-12T20:01:59.196Z,57.60
2022-09-12T20:04:35.163Z,57.60
2022-09-12T20:07:04.564Z,57.80
2022-09-12T20:09:36.052Z,58.30
2022-09-12T20:12:10.668Z,58.60
2022-09-12T20:14:40.669Z,58.90
2022-09-12T20:17:08.807Z,59.00
2022-09-12T20:19:38.282Z,59.40
2022-09-12T20:22:06.622Z,59.70
2022-09-12T20:24:35.973Z,59.70
2022-09-12T20:27:04.168Z,58.80
2022-09-12T20:29:32.278Z,58.10
2022-09-12T20:32:00.408Z,58.00
2022-09-12T20:34:28.562Z,58.20
2022-09-12T20:36:58.333Z,58.60
2022-09-12T20:39:26.659Z,59.20
2022-09-12T20:41:54.746Z,60.00
2022-09-12T20:44:22.869Z,60.80
2022-09-12T20:46:51.084Z,61.60
2022-09-12T20:49:19.246Z,62.10
2022-09-12T20:51:48.359Z,62.30
2022-09-12T20:54:18.139Z,62.60
2022-09-12T20:56:46.290Z,62.60
2022-09-12T20:59:14.391Z,62.90
2022-09-12T21:01:43.985Z,63.20
2022-09-12T21:04:15.138Z,63.50
2022-09-12T21:06:43.508Z,63.70
2022-09-12T21:09:11.655Z,63.60
2022-09-12T21:11:41.195Z,63.60
2022-09-12T21:14:09.334Z,63.60
2022-09-12T21:16:38.717Z,63.50
2022-09-12T21:19:08.026Z,63.70
2022-09-12T21:21:36.217Z,63.90
2022-09-12T21:24:04.609Z,64.00
2022-09-12T21:26:33.143Z,64.00
2022-09-12T21:29:02.833Z,64.10
2022-09-12T21:31:31.076Z,64.30
2022-09-12T21:33:59.217Z,64.70
2022-09-12T21:36:27.521Z,64.60
2022-09-12T21:38:59.149Z,64.60
2022-09-12T21:41:27.318Z,64.60
2022-09-12T21:43:55.572Z,64.70
2022-09-12T21:46:25.060Z,64.50
2022-09-12T21:48:53.179Z,64.30
2022-09-12T21:51:21.372Z,64.30
2022-09-12T21:53:50.732Z,64.50
2022-09-12T21:56:18.854Z,64.60
2022-09-12T21:58:47.289Z,64.80
2022-09-12T22:01:15.463Z,65.10
2022-09-12T22:03:45.041Z,65.30
2022-09-12T22:06:14.298Z,65.50
2022-09-12T22:08:42.486Z,65.70
2022-09-12T22:11:11.721Z,66.00
2022-09-12T22:13:42.876Z,66.40
2022-09-12T22:16:11.961Z,66.70
2022-09-12T22:18:40.514Z,66.80
2022-09-12T22:21:13.071Z,67.00
2022-09-12T22:23:58.978Z,67.20
2022-09-12T22:26:28.248Z,67.20
2022-09-12T22:28:56.408Z,67.30
2022-09-12T22:31:24.547Z,67.40
2022-09-12T22:33:52.687Z,67.30
2022-09-12T22:36:22.176Z,67.40
2022-09-12T22:38:50.967Z,67.30
2022-09-12T22:41:19.094Z,67.30
2022-09-12T22:43:47.251Z,67.50
2022-09-12T22:46:15.471Z,67.40
2022-09-12T22:48:43.813Z,67.60
2022-09-12T22:51:12.535Z,67.70
2022-09-12T22:53:42.050Z,67.70
2022-09-12T22:56:10.766Z,67.80
2022-09-12T22:58:38.922Z,67.90
2022-09-12T23:01:08.050Z,68.00
2022-09-12T23:03:36.461Z,68.00
2022-09-12T23:06:06.022Z,68.10
2022-09-12T23:08:36.238Z,68.10
2022-09-12T23:11:08.078Z,68.10
2022-09-12T23:13:36.363Z,68.20
2022-09-12T23:16:07.963Z,68.40
2022-09-12T23:18:37.008Z,68.40
2022-09-12T23:21:07.491Z,68.40
2022-09-12T23:23:36.737Z,68.50
2022-09-12T23:26:08.884Z,68.50
2022-09-12T23:28:37.940Z,68.60
2022-09-12T23:31:07.648Z,68.60
2022-09-12T23:33:36.255Z,68.70
2022-09-12T23:36:06.685Z,68.70
2022-09-12T23:38:36.454Z,68.70
2022-09-12T23:41:06.826Z,68.80
2022-09-12T23:43:35.264Z,68.80
2022-09-12T23:46:04.687Z,68.80
2022-09-12T23:48:33.693Z,68.90
2022-09-12T23:51:01.965Z,68.90
2022-09-12T23:53:31.056Z,69.00
2022-09-12T23:56:00.056Z,69.10
2022-09-12T23:58:31.004Z,69.20
